Time;durP1;ratioP1;P1;durP2;ratioP2;P2;SDS_P1;SDS_P2;PMS_P1;PMS_P2;Temp;Humidity;BMP_temperature;BMP_pressure;BME280_temperature;BME280_humidity;BME280_pressure;Samples;Min_cycle;Max_cycle;Signal;HPM_P1;HPM_P2
2021/03/27 09:15:19;;;;;;;20.90;16.38;;;;;;;13.25;44.08;95697.06;5001077;28;20046;-74
2021/03/27 09:18:34;;;;;;;17.95;15.82;;;;;;;13.37;42.74;95706.13;5017481;28;20038;-74
2021/03/27 09:21:25;;;;;;;19.15;14.57;;;;;;;13.33;44.68;95689.22;5015245;28;20049;-72
2021/03/27 09:24:22;;;;;;;33.22;15.95;;;;;;;14.15;43.60;95697.22;5019615;28;20022;-73
2021/03/27 09:26:53;;;;;;;16.90;14.07;;;;;;;13.99;42.51;95691.31;5030714;28;20045;-72
2021/03/27 09:29:53;;;;;;;16.52;13.85;;;;;;;14.38;44.27;95694.63;5019722;28;20562;-72
2021/03/27 09:32:42;;;;;;;15.82;14.13;;;;;;;14.04;43.97;95695.00;5019152;28;20022;-72
2021/03/27 09:35:11;;;;;;;16.30;14.30;;;;;;;14.78;42.83;95690.84;5035209;28;20113;-72
2021/03/27 09:37:47;;;;;;;18.98;16.98;;;;;;;13.17;43.89;95677.91;5022091;28;20022;-72
2021/03/27 09:40:25;;;;;;;18.40;16.48;;;;;;;13.95;45.39;95687.41;5021788;28;20076;-74
2021/03/27 09:42:55;;;;;;;20.05;15.88;;;;;;;14.72;42.47;95686.34;5004070;28;20047;-73
2021/03/27 09:45:25;;;;;;;17.42;15.73;;;;;;;14.52;46.12;95685.22;5007106;28;20040;-72
2021/03/27 09:48:28;;;;;;;17.05;15.25;;;;;;;13.82;45.12;95687.19;5021458;28;20029;-74
2021/03/27 09:51:18;;;;;;;16.35;14.65;;;;;;;14.89;42.55;95682.59;5020468;28;20053;-73
2021/03/27 09:53:48;;;;;;;15.95;14.32;;;;;;;14.31;42.50;95683.25;5009843;28;20058;-72
2021/03/27 09:56:17;;;;;;;;;;;;;;;14.47;44.08;95682.34;5021043;28;20018;-71
2021/03/27 09:59:16;;;;;;;17.58;15.63;;;;;;;15.07;41.64;95677.00;5022699;28;19913;-71
2021/03/27 10:01:51;;;;;;;16.52;14.95;;;;;;;13.48;44.02;95682.34;5019146;28;20057;-72
2021/03/27 10:04:20;;;;;;;19.50;15.25;;;;;;;14.40;43.66;95671.00;5019987;28;20103;-72
2021/03/27 10:07:04;;;;;;;16.60;14.15;;;;;;;13.41;43.66;95679.59;5023621;28;20028;-73
2021/03/27 10:09:55;;;;;;;17.58;14.63;;;;;;;12.37;44.88;95672.84;5021986;28;20042;-71
2021/03/27 10:12:39;;;;;;;16.70;14.63;;;;;;;14.21;41.73;95674.88;5008634;28;20037;-74
2021/03/27 10:15:15;;;;;;;14.48;12.90;;;;;;;12.90;44.27;95678.28;5041498;28;20196;-73
2021/03/27 10:17:42;;;;;;;15.43;13.93;;;;;;;14.72;42.67;95683.72;5024291;28;20071;-71
2021/03/27 10:20:16;;;;;;;14.35;13.00;;;;;;;14.40;41.45;95678.81;5025336;28;20029;-72
2021/03/27 10:23:19;;;;;;;15.85;14.38;;;;;;;14.89;40.91;95674.75;4949472;28;20053;-72
2021/03/27 10:26:13;;;;;;;18.08;14.93;;;;;;;15.41;40.51;95669.41;5012695;28;20410;-74
2021/03/27 10:28:44;;;;;;;17.80;15.95;;;;;;;15.11;40.80;95673.06;5030031;28;20569;-72
2021/03/27 10:31:16;;;;;;;20.10;16.67;;;;;;;14.13;43.77;95670.50;4995724;28;20029;-72
2021/03/27 10:34:01;;;;;;;17.63;15.93;;;;;;;15.08;40.26;95669.00;5003226;28;20034;-73
2021/03/27 10:36:58;;;;;;;16.80;15.20;;;;;;;14.73;43.49;95659.28;5021954;28;20036;-73
2021/03/27 10:39:51;;;;;;;14.82;13.30;;;;;;;14.59;41.24;95662.66;5016139;28;20045;-73
2021/03/27 10:42:40;;;;;;;15.13;13.60;;;;;;;14.71;40.91;95666.44;5027743;28;20498;-73
2021/03/27 10:45:09;;;;;;;16.33;13.45;;;;;;;14.72;40.11;95657.66;5028146;28;20030;-73
2021/03/27 10:48:03;;;;;;;14.88;12.75;;;;;;;12.72;41.50;95659.47;5026573;28;20030;-70
2021/03/27 10:50:32;;;;;;;13.65;12.25;;;;;;;14.01;39.38;95660.69;5025512;28;20048;-73
2021/03/27 10:53:03;;;;;;;14.40;11.38;;;;;;;14.22;39.80;95658.25;5029504;28;20257;-73
2021/03/27 10:55:53;;;;;;;13.55;12.25;;;;;;;14.94;39.84;95654.16;5026770;28;20084;-73
2021/03/27 10:58:21;;;;;;;;;;;;;;;14.10;41.05;95646.59;5029932;28;20116;-73
2021/03/27 11:00:54;;;;;;;14.65;12.60;;;;;;;14.70;40.64;95652.59;5027852;28;19990;-73
2021/03/27 11:03:57;;;;;;;14.45;12.77;;;;;;;14.80;40.78;95649.75;5027913;28;20112;-73
2021/03/27 11:07:16;;;;;;;14.07;12.68;;;;;;;12.19;42.37;95643.66;5029566;28;20862;-70
2021/03/27 11:10:09;;;;;;;12.18;10.23;;;;;;;13.64;41.14;95635.41;5005750;28;20491;-73
2021/03/27 11:12:53;;;;;;;10.98;9.98;;;;;;;14.35;40.39;95640.25;5027625;28;20508;-73
2021/03/27 11:15:46;;;;;;;14.07;11.40;;;;;;;14.48;40.18;95637.03;5025847;28;20133;-73
2021/03/27 11:18:33;;;;;;;13.85;12.45;;;;;;;14.88;40.69;95638.41;5026328;28;20081;-74
2021/03/27 11:21:18;;;;;;;12.98;11.27;;;;;;;13.73;42.30;95629.97;5026362;28;20036;-73
2021/03/27 11:23:52;;;;;;;17.42;12.80;;;;;;;14.58;40.63;95629.75;4994180;28;20532;-74
2021/03/27 11:26:45;;;;;;;14.07;11.32;;;;;;;15.09;38.65;95633.28;5025121;28;20429;-74
2021/03/27 11:29:29;;;;;;;18.02;12.18;;;;;;;15.05;40.26;95632.84;5026766;28;20380;-73
2021/03/27 11:32:08;;;;;;;72.43;15.40;;;;;;;14.98;40.69;95623.31;5027731;28;20071;-74
2021/03/27 11:34:54;;;;;;;14.83;13.17;;;;;;;14.78;39.37;95620.41;5007740;28;20078;-72
2021/03/27 11:37:25;;;;;;;14.23;11.95;;;;;;;14.03;41.09;95624.88;5027257;28;20112;-74
2021/03/27 11:39:55;;;;;;;12.73;11.52;;;;;;;14.27;40.55;95625.47;5040248;28;20018;-73
2021/03/27 11:43:17;;;;;;;12.27;10.68;;;;;;;14.99;39.09;95622.31;5008725;28;20037;-73
2021/03/27 11:45:46;;;;;;;11.88;10.68;;;;;;;14.55;39.48;95615.28;5028054;28;20067;-74
2021/03/27 11:48:27;;;;;;;12.68;10.48;;;;;;;14.29;38.32;95612.25;4998431;28;20033;-74
2021/03/27 11:51:00;;;;;;;14.07;12.57;;;;;;;14.77;39.45;95618.78;5012509;28;20033;-74
2021/03/27 11:53:44;;;;;;;12.77;11.18;;;;;;;14.99;40.85;95619.72;5025067;28;20029;-77
2021/03/27 11:56:16;;;;;;;12.27;10.63;;;;;;;14.70;40.28;95617.91;5008474;28;20545;-78
2021/03/27 12:01:48;;;;;;;10.13;9.23;;;;;;;14.59;36.46;95610.53;5027506;28;20131;-80
2021/03/27 12:04:38;;;;;;;10.63;8.60;;;;;;;14.76;37.44;95607.56;4991635;28;20029;-82
2021/03/27 12:07:17;;;;;;;9.55;8.68;;;;;;;15.30;36.65;95605.44;5026628;28;20032;-82
2021/03/27 12:10:00;;;;;;;9.10;8.30;;;;;;;14.78;35.18;95595.16;5004624;28;20037;-84
2021/03/27 12:12:36;;;;;;;10.00;8.45;;;;;;;14.59;36.61;95606.13;4998915;28;20025;-78
2021/03/27 12:15:28;;;;;;;8.18;7.38;;;;;;;14.96;37.05;95596.59;5025432;28;20037;-81
2021/03/27 12:18:04;;;;;;;9.18;8.40;;;;;;;15.18;37.54;95590.44;5007982;28;20037;-85
2021/03/27 12:21:04;;;;;;;11.05;8.85;;;;;;;15.35;35.58;95589.22;4989468;28;20026;-87
2021/03/27 12:23:40;;;;;;;11.00;8.63;;;;;;;15.61;36.42;95578.28;5024928;28;20025;-80
2021/03/27 12:26:37;;;;;;;8.10;7.40;;;;;;;15.41;36.73;95580.66;5003665;28;20689;-83
2021/03/27 12:29:12;;;;;;;9.23;8.38;;;;;;;14.95;35.29;95585.34;5005922;28;20095;-82
2021/03/27 12:32:19;;;;;;;10.30;8.45;;;;;;;15.12;36.71;95578.91;5008442;28;20022;-83
2021/03/27 12:35:34;;;;;;;9.13;8.23;;;;;;;14.37;36.20;95580.13;5022136;28;20061;-82
2021/03/27 12:38:11;;;;;;;9.07;8.25;;;;;;;14.24;34.96;95576.31;5007702;28;20037;-83
2021/03/27 12:41:15;;;;;;;8.70;7.80;;;;;;;14.29;35.03;95569.78;5018068;28;20029;-80
2021/03/27 12:43:52;;;;;;;9.40;8.50;;;;;;;14.47;35.35;95570.25;5015824;28;20041;-78
2021/03/27 12:46:32;;;;;;;42.22;14.95;;;;;;;14.75;35.81;95573.84;5008178;28;20025;-78
2021/03/27 12:49:17;;;;;;;13.45;11.93;;;;;;;15.05;36.23;95570.22;5007643;28;20095;-77
2021/03/27 12:51:46;;;;;;;9.02;8.05;;;;;;;15.49;36.40;95571.94;5017779;28;20112;-75
2021/03/27 12:54:40;;;;;;;8.73;7.93;;;;;;;15.34;35.70;95561.50;4981724;28;20037;-77
2021/03/27 12:57:23;;;;;;;8.13;7.32;;;;;;;15.19;36.43;95566.75;5015061;28;20393;-77
2021/03/27 13:00:03;;;;;;;9.75;8.75;;;;;;;15.22;37.52;95571.59;5018118;28;20060;-77
2021/03/27 13:03:06;;;;;;;9.98;8.77;;;;;;;15.30;37.45;95565.47;5005255;28;20124;-77
2021/03/27 13:05:34;;;;;;;10.82;8.45;;;;;;;15.40;36.19;95562.56;5015808;28;20490;-77
2021/03/27 13:08:10;;;;;;;9.13;8.07;;;;;;;15.37;37.26;95557.72;5021042;28;20060;-76
2021/03/27 13:10:46;;;;;;;8.00;7.28;;;;;;;15.47;35.66;95560.84;5016446;28;20021;-77
2021/03/27 13:13:22;;;;;;;8.70;7.25;;;;;;;15.30;34.83;95553.25;5008141;28;20104;-76
2021/03/27 13:15:52;;;;;;;9.00;7.57;;;;;;;15.09;35.32;95549.81;5006689;28;20485;-78
2021/03/27 13:18:35;;;;;;;11.13;9.82;;;;;;;15.14;36.79;95553.47;5005641;28;20036;-78
2021/03/27 13:21:16;;;;;;;10.32;9.32;;;;;;;15.05;37.13;95553.75;5021567;28;20025;-79
2021/03/27 13:23:50;;;;;;;12.27;8.73;;;;;;;14.95;36.67;95561.88;5032815;28;20032;-79
2021/03/27 13:26:21;;;;;;;9.07;7.88;;;;;;;15.21;36.13;95558.75;5016707;28;20076;-79
2021/03/27 13:29:01;;;;;;;11.85;8.98;;;;;;;15.19;37.96;95545.88;5017414;28;20029;-78
2021/03/27 13:31:36;;;;;;;9.55;8.18;;;;;;;15.27;36.89;95552.81;5005793;28;20524;-79
2021/03/27 13:34:18;;;;;;;9.68;8.80;;;;;;;15.02;35.85;95546.31;4999555;28;20494;-77
2021/03/27 13:36:46;;;;;;;15.60;10.13;;;;;;;14.91;36.12;95555.38;4987541;28;20032;-78
2021/03/27 13:39:42;;;;;;;11.20;10.07;;;;;;;15.28;36.48;95550.00;5006391;28;20029;-77
2021/03/27 13:42:22;;;;;;;11.32;10.00;;;;;;;14.95;36.94;95546.22;5013495;28;20033;-78
2021/03/27 13:44:55;;;;;;;14.60;11.13;;;;;;;15.13;37.26;95545.81;5015885;28;20029;-78
2021/03/27 13:47:25;;;;;;;15.63;10.77;;;;;;;14.90;36.87;95547.75;5000914;28;20406;-76
2021/03/27 13:49:59;;;;;;;14.98;11.57;;;;;;;14.66;37.22;95525.38;5016419;28;20028;-77
2021/03/27 13:52:33;;;;;;;12.75;11.43;;;;;;;15.05;36.85;95544.13;5016108;28;20518;-79
2021/03/27 13:55:22;;;;;;;12.50;10.00;;;;;;;14.95;36.81;95537.56;5019190;28;20056;-77
2021/03/27 13:58:26;;;;;;;14.50;10.60;;;;;;;15.08;35.99;95538.53;5025488;28;20029;-78
2021/03/27 14:00:57;;;;;;;11.27;10.18;;;;;;;15.10;36.12;95539.16;4995728;28;20026;-79
2021/03/27 14:03:41;;;;;;;21.15;16.90;;;;;;;15.24;35.58;95530.50;5027966;28;20158;-79
2021/03/27 14:06:16;;;;;;;11.55;10.25;;;;;;;15.11;35.18;95521.72;5011472;28;20030;-79
2021/03/27 14:09:03;;;;;;;12.45;11.15;;;;;;;14.75;35.80;95524.28;5028509;28;20033;-78
2021/03/27 14:11:38;;;;;;;13.48;11.45;;;;;;;14.85;35.92;95517.00;5044218;28;20054;-77
2021/03/27 14:14:06;;;;;;;14.77;10.02;;;;;;;14.90;36.29;95521.69;5010678;28;20041;-79
2021/03/27 14:16:57;;;;;;;11.85;10.63;;;;;;;15.18;35.81;95522.59;5011669;28;20456;-77
2021/03/27 14:19:47;;;;;;;13.23;9.82;;;;;;;15.15;35.91;95523.78;5010572;28;20394;-77
2021/03/27 14:22:30;;;;;;;13.63;10.27;;;;;;;15.10;35.93;95514.88;5028364;28;20029;-78
2021/03/27 14:25:17;;;;;;;9.70;8.80;;;;;;;15.13;34.74;95519.72;5010948;28;20057;-76
2021/03/27 14:28:08;;;;;;;13.05;8.80;;;;;;;14.89;34.73;95514.84;5027855;28;20035;-77
2021/03/27 14:30:45;;;;;;;10.65;9.00;;;;;;;14.92;35.33;95506.66;5026442;28;20037;-78
2021/03/27 14:33:42;;;;;;;9.02;8.32;;;;;;;14.88;35.66;95508.00;5010703;28;20032;-78
2021/03/27 14:36:11;;;;;;;10.27;9.00;;;;;;;14.95;36.08;95517.53;5026152;28;20033;-78
2021/03/27 14:39:00;;;;;;;10.70;9.10;;;;;;;14.83;34.84;95508.56;5027000;28;20482;-78
2021/03/27 14:41:29;;;;;;;11.02;9.63;;;;;;;14.95;35.48;95512.31;5026471;28;20025;-77
2021/03/27 14:44:03;;;;;;;12.65;9.38;;;;;;;14.73;35.99;95511.47;5026185;28;20042;-78
2021/03/27 14:46:44;;;;;;;14.90;9.85;;;;;;;14.56;36.18;95506.59;5028412;28;20112;-77
2021/03/27 14:49:12;;;;;;;13.45;9.55;;;;;;;14.56;35.94;95509.22;5026875;28;20033;-78
2021/03/27 14:51:53;;;;;;;11.95;9.43;;;;;;;14.65;35.57;95511.53;5027489;28;20249;-78
2021/03/27 14:54:19;;;;;;;12.57;9.85;;;;;;;14.72;35.80;95503.81;5009809;28;20406;-78
2021/03/27 14:56:44;;;;;;;11.55;9.07;;;;;;;14.73;36.19;95502.81;5024464;28;20033;-78
2021/03/27 14:59:22;;;;;;;13.13;9.50;;;;;;;14.65;36.17;95502.91;5007448;28;20025;-79
2021/03/27 15:01:55;;;;;;;11.80;9.32;;;;;;;14.57;35.72;95503.84;5008232;28;20037;-77
2021/03/27 15:04:29;;;;;;;11.10;8.77;;;;;;;14.21;35.88;95498.50;4992831;28;20144;-77
2021/03/27 15:07:06;;;;;;;11.38;8.73;;;;;;;14.48;36.21;95497.06;4992675;28;20494;-78
2021/03/27 15:09:46;;;;;;;16.80;9.05;;;;;;;14.51;35.29;95506.34;5024774;28;20041;-77
2021/03/27 15:12:17;;;;;;;8.48;7.65;;;;;;;14.51;36.06;95503.75;5026419;28;20033;-78
2021/03/27 15:15:20;;;;;;;10.55;7.35;;;;;;;14.28;35.50;95501.22;5024475;28;20495;-78
2021/03/27 15:17:56;;;;;;;9.55;8.07;;;;;;;14.38;36.00;95504.38;5026095;28;20398;-78
2021/03/27 15:20:26;;;;;;;9.38;8.30;;;;;;;14.46;36.29;95495.66;5009434;28;20025;-79
2021/03/27 15:22:55;;;;;;;;;;;;;;;14.52;36.62;95495.72;5025779;28;20145;-78
2021/03/27 15:28:42;;;;;;;9.67;6.50;;;;;;;14.40;36.81;95501.59;5004168;28;20609;-78
2021/03/27 15:31:30;;;;;;;8.70;6.75;;;;;;;14.31;36.64;95500.03;5021049;28;20048;-78
2021/03/27 15:34:17;;;;;;;7.75;6.30;;;;;;;14.32;37.02;95502.44;5003903;28;20037;-77
2021/03/27 15:36:58;;;;;;;6.60;6.00;;;;;;;14.24;37.18;95498.16;5036692;28;20083;-78
2021/03/27 15:39:37;;;;;;;7.35;5.65;;;;;;;14.13;36.97;95511.59;5028529;28;20037;-77
2021/03/27 15:42:06;;;;;;;8.50;6.03;;;;;;;14.06;37.45;95509.91;5004557;28;20399;-77
2021/03/27 15:44:35;;;;;;;8.45;5.88;;;;;;;14.03;37.09;95497.25;4995499;28;20029;-78
2021/03/27 15:47:10;;;;;;;8.18;5.90;;;;;;;14.00;36.97;95497.59;4987112;28;20109;-78
2021/03/27 15:49:46;;;;;;;8.68;6.00;;;;;;;13.96;37.81;95514.56;5023420;28;20060;-78
2021/03/27 15:52:21;;;;;;;9.20;5.78;;;;;;;14.00;37.12;95510.63;5025893;28;20025;-78
2021/03/27 15:54:55;;;;;;;7.55;5.60;;;;;;;13.99;37.17;95509.00;5024067;28;20033;-79
2021/03/27 15:57:41;;;;;;;6.18;5.55;;;;;;;13.87;36.66;95510.41;5025005;28;20437;-76
2021/03/27 16:00:12;;;;;;;10.98;5.85;;;;;;;13.83;36.34;95512.56;5023759;28;20040;-79
2021/03/27 16:02:47;;;;;;;6.10;5.47;;;;;;;13.66;36.05;95511.88;5024047;28;20034;-78
2021/03/27 16:05:35;;;;;;;7.03;5.45;;;;;;;13.71;36.13;95513.94;5024356;28;20021;-77
2021/03/27 16:08:03;;;;;;;17.70;14.23;;;;;;;13.64;38.65;95510.44;4998551;28;20048;-78
2021/03/27 16:10:34;;;;;;;23.95;21.65;;;;;;;13.52;39.95;95522.25;5006941;28;20037;-78
2021/03/27 16:13:29;;;;;;;42.90;34.35;;;;;;;13.38;42.43;95526.44;5025696;28;20147;-78
2021/03/27 16:15:59;;;;;;;31.77;24.75;;;;;;;13.08;45.80;95530.69;5015960;28;20033;-78
2021/03/27 16:18:39;;;;;;;19.73;16.38;;;;;;;13.09;43.24;95524.50;5035384;28;20029;-78
2021/03/27 16:21:24;;;;;;;;;;;;;;;13.03;44.53;95530.38;5008493;28;20507;-78
2021/03/27 16:24:07;;;;;;;25.13;17.23;;;;;;;12.65;45.59;95523.38;5023438;28;20314;-77
2021/03/27 16:26:38;;;;;;;16.85;12.45;;;;;;;12.50;45.65;95514.69;5036631;28;20471;-78
2021/03/27 16:29:09;;;;;;;14.85;10.52;;;;;;;12.03;48.30;95533.66;5028255;28;20537;-78
2021/03/27 16:31:38;;;;;;;19.38;15.20;;;;;;;11.96;48.53;95505.91;5023724;28;20538;-78
2021/03/27 16:34:21;;;;;;;31.40;27.33;;;;;;;11.62;50.84;95529.44;5007200;28;20025;-77
2021/03/27 16:37:00;;;;;;;51.25;21.40;;;;;;;11.32;52.54;95528.28;5021371;28;20033;-77
2021/03/27 16:40:03;;;;;;;28.42;11.73;;;;;;;10.96;53.01;95535.53;4990853;28;20021;-78
2021/03/27 16:42:47;;;;;;;32.88;19.95;;;;;;;10.45;54.35;95533.09;5021352;28;20030;-76
2021/03/27 16:45:40;;;;;;;43.30;13.32;;;;;;;10.07;54.30;95529.97;5016080;28;20087;-76
2021/03/27 16:48:22;;;;;;;71.75;12.45;;;;;;;9.57;55.43;95516.03;5015952;28;20052;-75
2021/03/27 16:51:15;;;;;;;12.80;9.93;;;;;;;9.34;56.10;95541.53;5022697;28;20568;-75
2021/03/27 16:54:37;;;;;;;11.65;9.32;;;;;;;9.23;54.78;95543.53;5025216;28;20033;-78
2021/03/27 16:57:09;;;;;;;25.05;15.63;;;;;;;9.08;55.13;95545.00;4984004;28;20468;-78
2021/03/27 17:00:15;;;;;;;57.53;32.53;;;;;;;8.99;56.41;95546.69;4983502;28;20201;-78
2021/03/27 17:02:58;;;;;;;44.83;27.38;;;;;;;8.78;56.54;95546.97;5034823;28;20052;-79
2021/03/27 17:05:29;;;;;;;36.55;23.45;;;;;;;8.76;56.67;95548.91;4991636;28;20031;-78
2021/03/27 17:08:22;;;;;;;69.55;20.02;;;;;;;8.61;57.33;95546.91;5025254;28;20033;-78
2021/03/27 17:11:10;;;;;;;62.25;38.15;;;;;;;8.37;58.41;95547.44;5009075;28;20041;-79
2021/03/27 17:13:42;;;;;;;59.60;38.90;;;;;;;8.04;59.08;95537.63;4991881;28;20049;-79
2021/03/27 17:16:17;;;;;;;49.55;35.53;;;;;;;7.85;60.01;95559.13;4990021;28;20043;-79
2021/03/27 17:19:00;;;;;;;40.65;27.98;;;;;;;8.08;58.38;95557.03;5025501;28;20550;-78
2021/03/27 17:21:56;;;;;;;30.05;21.73;;;;;;;7.85;58.67;95559.94;5025934;28;20036;-79
2021/03/27 17:24:26;;;;;;;11.52;9.80;;;;;;;7.73;58.64;95558.47;5020272;28;20466;-78
2021/03/27 17:27:12;;;;;;;19.33;10.32;;;;;;;7.54;59.59;95555.09;4999187;28;20025;-79
2021/03/27 17:29:47;;;;;;;12.73;10.73;;;;;;;7.54;58.81;95561.06;5005889;28;20091;-78
2021/03/27 17:32:27;;;;;;;11.27;8.90;;;;;;;7.54;58.49;95566.22;5024280;28;20034;-78
2021/03/27 17:35:14;;;;;;;11.55;8.73;;;;;;;7.10;60.20;95566.75;5013322;28;20044;-79
2021/03/27 17:37:58;;;;;;;9.30;7.63;;;;;;;7.06;60.69;95565.41;5027125;28;20080;-80
2021/03/27 17:40:46;;;;;;;10.93;8.73;;;;;;;6.94;60.06;95567.28;5012616;28;20060;-79
2021/03/27 17:43:26;;;;;;;10.25;8.85;;;;;;;6.83;60.64;95575.94;5017486;28;20029;-78
2021/03/27 17:46:06;;;;;;;16.97;10.37;;;;;;;6.83;60.80;95577.69;4996988;28;20550;-79
2021/03/27 17:48:51;;;;;;;26.08;14.90;;;;;;;6.93;60.03;95580.28;5013282;28;20268;-78
2021/03/27 17:51:30;;;;;;;19.35;12.98;;;;;;;6.54;61.13;95579.38;5027101;28;20044;-78
2021/03/27 17:54:18;;;;;;;13.60;9.57;;;;;;;6.58;61.34;95583.31;5010915;28;20045;-78
2021/03/27 17:56:46;;;;;;;12.02;8.88;;;;;;;6.31;62.05;95584.72;5010339;28;20033;-78
2021/03/27 17:59:42;;;;;;;16.30;9.02;;;;;;;6.36;62.14;95586.88;4993816;28;20528;-79
2021/03/27 18:02:10;;;;;;;13.70;8.82;;;;;;;6.17;62.89;95591.94;5011217;28;20096;-81
2021/03/27 18:04:40;;;;;;;13.00;8.77;;;;;;;5.83;63.06;95566.44;5028239;28;20052;-79
2021/03/27 18:07:06;;;;;;;11.90;8.20;;;;;;;5.90;63.13;95592.50;5010241;28;20030;-79
2021/03/27 18:09:33;;;;;;;11.52;8.25;;;;;;;5.95;62.77;95592.91;5029716;28;20040;-81
2021/03/27 18:12:22;;;;;;;9.50;8.35;;;;;;;5.94;63.11;95596.41;5023441;28;20116;-79
2021/03/27 18:14:59;;;;;;;11.65;8.60;;;;;;;6.08;62.44;95588.38;5028581;28;20601;-79
2021/03/27 18:17:29;;;;;;;11.10;9.05;;;;;;;5.72;63.97;95587.06;5026681;28;20104;-79
2021/03/27 18:20:21;;;;;;;13.98;9.40;;;;;;;5.72;63.86;95599.91;5026042;28;20040;-79
2021/03/27 18:23:02;;;;;;;12.85;10.23;;;;;;;5.55;64.32;95585.06;5026882;28;20040;-80
2021/03/27 18:25:28;;;;;;;19.10;15.85;;;;;;;5.99;63.24;95598.63;5026489;28;20029;-79
2021/03/27 18:28:15;;;;;;;31.92;20.23;;;;;;;5.49;64.67;95600.16;5024836;28;20114;-79
2021/03/27 18:31:10;;;;;;;28.48;19.67;;;;;;;5.44;64.76;95602.25;5025677;28;20132;-79
2021/03/27 18:33:45;;;;;;;23.25;15.60;;;;;;;5.28;65.19;95602.69;5008643;28;20125;-78
2021/03/27 18:36:26;;;;;;;24.35;16.08;;;;;;;5.41;64.44;95602.50;5036769;28;20032;-79
2021/03/27 18:39:24;;;;;;;24.90;17.27;;;;;;;5.36;64.52;95613.19;5017234;28;20562;-79
2021/03/27 18:42:02;;;;;;;23.10;16.33;;;;;;;5.43;63.83;95616.84;5024988;28;20520;-79
2021/03/27 18:44:28;;;;;;;16.55;13.00;;;;;;;5.66;62.87;95620.97;5020996;28;20033;-79
2021/03/27 18:46:55;;;;;;;14.80;12.63;;;;;;;5.63;63.26;95612.69;5027508;28;20024;-79
2021/03/27 18:49:24;;;;;;;19.50;14.40;;;;;;;5.58;63.42;95602.81;5009084;28;20494;-78
2021/03/27 18:52:07;;;;;;;19.17;14.30;;;;;;;5.30;65.23;95626.47;4991489;28;20034;-78
2021/03/27 18:54:55;;;;;;;13.50;11.88;;;;;;;5.51;63.21;95618.81;5002410;28;20112;-78
2021/03/27 18:57:38;;;;;;;18.42;12.75;;;;;;;5.26;64.57;95640.50;5041873;28;20083;-78
2021/03/27 19:00:25;;;;;;;14.52;12.88;;;;;;;5.25;64.12;95631.16;5014270;28;20521;-78
2021/03/27 19:03:01;;;;;;;18.15;13.10;;;;;;;5.27;64.48;95637.81;5010406;28;20486;-79
2021/03/27 19:05:33;;;;;;;31.90;19.95;;;;;;;5.05;65.07;95622.47;5008849;28;20112;-78
2021/03/27 19:08:08;;;;;;;44.42;27.77;;;;;;;4.95;65.87;95654.91;4998844;28;20040;-78
2021/03/27 19:10:40;;;;;;;33.33;20.17;;;;;;;4.88;66.15;95650.41;5022066;28;20048;-79
2021/03/27 19:13:14;;;;;;;25.30;17.70;;;;;;;4.79;66.86;95657.84;5019900;28;20046;-79
2021/03/27 19:15:44;;;;;;;32.22;21.70;;;;;;;4.63;67.12;95636.88;5025795;28;20033;-78
2021/03/27 19:18:22;;;;;;;94.75;58.05;;;;;;;4.77;67.10;95651.22;5009676;28;20472;-78
2021/03/27 19:20:49;;;;;;;82.55;52.88;;;;;;;4.75;67.56;95656.44;4992935;28;20587;-79
2021/03/27 19:23:19;;;;;;;24.40;18.15;;;;;;;4.68;67.42;95654.50;5010078;28;20545;-77
2021/03/27 19:25:45;;;;;;;20.90;14.88;;;;;;;4.71;68.14;95654.25;5008322;28;20052;-78
2021/03/27 19:28:24;;;;;;;14.85;11.85;;;;;;;4.59;68.75;95663.69;4993154;28;20648;-78
2021/03/27 19:30:56;;;;;;;14.63;9.05;;;;;;;4.35;70.17;95668.13;5024776;28;20033;-77
2021/03/27 19:33:28;;;;;;;11.05;8.63;;;;;;;4.70;68.28;95658.56;5026848;28;20399;-79
2021/03/27 19:36:01;;;;;;;19.42;11.18;;;;;;;4.37;69.44;95660.28;5010085;28;20030;-79
2021/03/27 19:38:35;;;;;;;17.45;13.52;;;;;;;4.17;70.07;95666.94;5014425;28;20060;-78
2021/03/27 19:41:24;;;;;;;17.08;13.85;;;;;;;4.28;69.83;95672.06;4993444;28;20514;-80
2021/03/27 19:43:55;;;;;;;21.20;14.73;;;;;;;4.28;68.79;95664.38;4990236;28;20038;-80
2021/03/27 19:46:33;;;;;;;21.30;15.48;;;;;;;4.22;68.52;95670.78;4989378;28;20140;-80
2021/03/27 19:49:07;;;;;;;24.27;15.10;;;;;;;4.48;67.53;95662.88;5006124;28;20099;-81
2021/03/27 19:52:06;;;;;;;29.75;15.45;;;;;;;4.54;67.60;95668.38;4988846;28;20037;-79
2021/03/27 19:54:40;;;;;;;24.83;15.90;;;;;;;4.42;66.97;95669.31;5004670;28;20022;-78
2021/03/27 19:57:09;;;;;;;25.73;17.02;;;;;;;4.46;67.09;95668.13;5008016;28;20096;-79
2021/03/27 19:59:48;;;;;;;23.77;15.50;;;;;;;4.63;66.74;95677.91;5004295;28;20032;-79
2021/03/27 20:02:20;;;;;;;25.50;17.17;;;;;;;4.40;67.57;95681.41;5006801;28;20042;-80
2021/03/27 20:04:55;;;;;;;27.75;19.00;;;;;;;4.28;67.95;95679.75;5005635;28;20161;-78
2021/03/27 20:07:23;;;;;;;26.98;20.13;;;;;;;4.19;68.74;95694.09;5005622;28;20026;-78
2021/03/27 20:10:13;;;;;;;28.83;19.88;;;;;;;4.32;67.07;95683.72;5004394;28;20032;-79
2021/03/27 20:12:57;;;;;;;31.38;20.70;;;;;;;3.73;69.57;95670.19;4988291;28;20076;-79
2021/03/27 20:15:24;;;;;;;30.00;22.98;;;;;;;3.68;70.87;95697.88;4985138;28;20400;-79
2021/03/27 20:18:15;;;;;;;46.78;31.95;;;;;;;3.67;71.38;95704.75;5004835;28;20034;-79
2021/03/27 20:20:41;;;;;;;89.55;63.50;;;;;;;3.59;71.94;95704.50;5003893;28;20022;-79
2021/03/27 20:23:18;;;;;;;72.05;48.65;;;;;;;4.07;69.27;95694.19;5006578;28;20407;-79
2021/03/27 20:26:03;;;;;;;54.17;35.30;;;;;;;4.24;68.58;95703.97;5004099;28;20026;-78
2021/03/27 20:28:36;;;;;;;40.90;27.65;;;;;;;4.36;67.49;95697.97;5005506;28;20538;-77
2021/03/27 20:31:40;;;;;;;37.83;24.90;;;;;;;4.39;67.24;95700.28;5004086;28;20487;-77
2021/03/27 20:34:16;;;;;;;41.40;26.05;;;;;;;4.37;66.43;95697.00;4993323;28;20036;-79
2021/03/27 20:36:44;;;;;;;53.53;33.78;;;;;;;4.08;68.21;95690.66;5001732;28;20041;-80
2021/03/27 20:39:24;;;;;;;36.58;25.35;;;;;;;3.20;71.70;95676.59;4973914;28;20045;-80
2021/03/27 20:42:11;;;;;;;29.45;20.23;;;;;;;3.37;71.39;95704.38;4996012;28;20021;-79
2021/03/27 20:44:51;;;;;;;25.30;18.13;;;;;;;3.49;71.27;95703.50;4997717;28;20026;-80
2021/03/27 20:47:17;;;;;;;20.20;14.55;;;;;;;3.67;69.69;95709.06;5004105;28;20033;-78
2021/03/27 20:50:07;;;;;;;21.10;13.75;;;;;;;3.84;68.58;95707.84;5004504;28;20402;-77
2021/03/27 20:52:48;;;;;;;30.40;18.20;;;;;;;3.66;68.86;95704.88;5003816;28;20120;-78
2021/03/27 20:55:46;;;;;;;21.38;14.73;;;;;;;3.40;71.34;95711.03;5004381;28;20037;-78
2021/03/27 20:58:57;;;;;;;68.30;50.67;;;;;;;3.16;71.71;95711.00;4999171;28;20034;-78
2021/03/27 21:01:31;;;;;;;54.92;38.38;;;;;;;3.23;71.57;95707.09;4988100;28;20495;-78
2021/03/27 21:04:06;;;;;;;42.20;26.55;;;;;;;3.37;71.48;95708.69;5004798;28;20077;-80
2021/03/27 21:06:43;;;;;;;47.38;29.60;;;;;;;3.69;70.05;95718.25;5015780;28;20053;-81
2021/03/27 21:09:29;;;;;;;52.08;28.45;;;;;;;3.68;70.19;95724.31;5008339;28;20369;-82
2021/03/27 21:12:23;;;;;;;75.55;34.08;;;;;;;3.20;71.66;95712.44;4991044;28;20041;-80
2021/03/27 21:14:56;;;;;;;37.08;21.90;;;;;;;2.84;73.24;95730.31;4985274;28;20050;-80
2021/03/27 21:17:49;;;;;;;36.75;21.33;;;;;;;2.63;73.89;95702.72;5002882;28;20066;-79
2021/03/27 21:20:35;;;;;;;68.13;34.42;;;;;;;3.01;72.24;95712.06;5006849;28;20042;-80
2021/03/27 21:23:15;;;;;;;43.92;22.38;;;;;;;3.42;70.17;95724.53;4995503;28;20105;-79
2021/03/27 21:26:01;;;;;;;38.47;19.23;;;;;;;3.11;72.19;95721.53;4996928;28;20977;-83
2021/03/27 21:28:43;;;;;;;80.50;38.08;;;;;;;3.19;72.74;95731.25;4980686;28;20045;-80
2021/03/27 21:31:14;;;;;;;59.92;33.83;;;;;;;3.39;70.39;95732.44;5001282;28;20622;-79
2021/03/27 21:34:02;;;;;;;54.35;29.60;;;;;;;3.30;70.20;95731.34;5003445;28;20486;-82
2021/03/27 21:37:07;;;;;;;21.60;15.32;;;;;;;3.19;70.41;95739.75;5004312;28;20046;-80
2021/03/27 21:39:55;;;;;;;20.40;14.23;;;;;;;2.81;72.53;95741.56;5002781;28;20044;-79
2021/03/27 21:42:37;;;;;;;18.77;13.55;;;;;;;2.76;72.35;95738.50;4987546;28;20030;-78
2021/03/27 21:45:24;;;;;;;18.10;13.45;;;;;;;2.94;72.27;95744.94;4987631;28;20037;-77
2021/03/27 21:48:20;;;;;;;22.45;15.88;;;;;;;2.85;73.00;95739.63;4990090;28;20026;-80
2021/03/27 21:51:03;;;;;;;18.90;15.30;;;;;;;2.84;73.33;95743.09;5004127;28;20054;-78